Time;durP1;ratioP1;P1;durP2;ratioP2;P2;SDS_P1;SDS_P2;PMS_P1;PMS_P2;Temp;Humidity;BMP_temperature;BMP_pressure;BME280_temperature;BME280_humidity;BME280_pressure;Samples;Min_cycle;Max_cycle;Signal;HPM_P1;HPM_P2
2023/06/12 00:01:04;;;;;;;5.15;4.65;;;;;;;16.40;100.00;97236.88;5082680;28;20094;-69
2023/06/12 00:03:30;;;;;;;5.72;5.13;;;;;;;16.39;100.00;97236.03;5076489;28;20074;-69
2023/06/12 00:06:00;;;;;;;7.60;5.40;;;;;;;16.28;100.00;97214.91;5084605;28;20054;-69
2023/06/12 00:08:29;;;;;;;6.45;5.05;;;;;;;16.22;100.00;97211.00;5081137;28;20039;-69
2023/06/12 00:10:55;;;;;;;5.32;4.85;;;;;;;16.17;100.00;97206.13;5077172;28;20020;-69
2023/06/12 00:13:20;;;;;;;5.78;5.28;;;;;;;16.18;100.00;97202.47;5086456;28;20365;-68
2023/06/12 00:15:46;;;;;;;7.15;6.55;;;;;;;16.17;100.00;97150.31;5083109;28;20470;-69
2023/06/12 00:18:12;;;;;;;7.18;6.47;;;;;;;16.17;100.00;97155.63;5079403;28;20058;-69
2023/06/12 00:20:38;;;;;;;5.82;5.32;;;;;;;16.14;100.00;97157.72;5071850;28;20472;-69
2023/06/12 00:23:03;;;;;;;5.63;4.93;;;;;;;16.09;100.00;97154.66;5086198;28;20504;-69
2023/06/12 00:25:29;;;;;;;8.07;5.30;;;;;;;16.09;100.00;97155.50;5084879;28;21035;-69
2023/06/12 00:27:54;;;;;;;8.70;4.95;;;;;;;16.12;100.00;97157.03;5074839;28;20028;-69
2023/06/12 00:30:20;;;;;;;6.70;4.63;;;;;;;16.06;100.00;97160.25;5076058;28;20012;-69
2023/06/12 00:32:46;;;;;;;5.28;4.15;;;;;;;16.02;100.00;97165.84;5083738;28;20028;-69
2023/06/12 00:35:12;;;;;;;9.15;4.40;;;;;;;15.97;100.00;97157.44;5078297;28;20031;-68
2023/06/12 00:37:42;;;;;;;5.00;4.55;;;;;;;15.95;100.00;97159.41;5087141;28;20028;-69
2023/06/12 00:40:10;;;;;;;5.20;4.32;;;;;;;15.87;100.00;97156.59;5089473;28;20032;-69
2023/06/12 00:42:41;;;;;;;5.32;4.93;;;;;;;15.79;100.00;97151.13;5089756;28;20027;-69
2023/06/12 00:45:08;;;;;;;4.55;4.25;;;;;;;15.76;100.00;97146.94;5078072;28;20069;-69
2023/06/12 00:47:35;;;;;;;6.32;5.70;;;;;;;15.80;100.00;97155.44;5084365;28;20043;-69
2023/06/12 00:50:01;;;;;;;5.85;5.18;;;;;;;15.72;100.00;97143.72;5079316;28;20066;-69
2023/06/12 00:52:29;;;;;;;6.18;5.57;;;;;;;15.71;100.00;97147.34;5084684;28;20028;-69
2023/06/12 00:54:56;;;;;;;6.35;5.40;;;;;;;15.70;100.00;97140.38;5083478;28;20063;-69
2023/06/12 00:57:22;;;;;;;5.35;4.97;;;;;;;15.68;100.00;97142.31;5082270;28;20033;-69
2023/06/12 00:59:48;;;;;;;5.25;4.85;;;;;;;15.70;100.00;97143.03;5083290;28;20068;-69
2023/06/12 01:02:14;;;;;;;4.43;4.18;;;;;;;15.75;100.00;97143.44;5076147;28;20049;-69
2023/06/12 01:04:42;;;;;;;4.97;4.57;;;;;;;15.74;100.00;97135.63;5075347;28;20028;-68
2023/06/12 01:07:20;;;;;;;3.72;3.53;;;;;;;15.72;100.00;97122.47;5075322;28;20493;-69
2023/06/12 01:09:58;;;;;;;5.53;3.85;;;;;;;15.73;100.00;97121.50;5080354;28;20020;-69
2023/06/12 01:12:24;;;;;;;4.45;4.15;;;;;;;15.73;100.00;97129.47;5084485;28;20028;-68
2023/06/12 01:14:50;;;;;;;3.95;3.47;;;;;;;15.69;100.00;97120.13;5076709;28;20043;-69
2023/06/12 01:17:16;;;;;;;4.50;4.10;;;;;;;15.69;100.00;97122.75;5084402;28;20106;-68
2023/06/12 01:19:42;;;;;;;4.85;4.22;;;;;;;15.69;100.00;97112.16;5076516;28;20393;-69
2023/06/12 01:22:12;;;;;;;5.18;4.10;;;;;;;15.75;100.00;97113.41;5090159;28;20035;-69
2023/06/12 01:25:23;;;;;;;4.72;4.38;;;;;;;15.76;100.00;97120.41;5084165;28;20052;-69
2023/06/12 01:28:06;;;;;;;4.38;4.07;;;;;;;15.79;100.00;97105.97;5077663;28;20040;-69
2023/06/12 01:30:46;;;;;;;5.20;4.72;;;;;;;15.69;100.00;97105.97;5081182;28;20593;-68
2023/06/12 01:33:17;;;;;;;5.55;4.43;;;;;;;15.58;100.00;97114.91;5084019;28;20027;-68
2023/06/12 01:35:46;;;;;;;4.65;4.15;;;;;;;15.58;100.00;97029.97;5080125;28;20074;-69
2023/06/12 01:38:23;;;;;;;4.18;3.88;;;;;;;15.62;100.00;97023.44;5090288;28;20088;-69
2023/06/12 01:40:50;;;;;;;4.97;4.57;;;;;;;15.66;100.00;97026.63;5082919;28;20051;-68
2023/06/12 01:43:16;;;;;;;4.63;4.22;;;;;;;15.70;100.00;97028.88;5082304;28;20016;-68
2023/06/12 01:45:42;;;;;;;4.72;4.07;;;;;;;15.72;100.00;97037.53;5083013;28;20067;-69
2023/06/12 01:48:08;;;;;;;5.20;4.60;;;;;;;15.69;100.00;97035.16;5091160;28;20488;-68
2023/06/12 01:50:33;;;;;;;5.38;4.85;;;;;;;15.61;100.00;97035.84;5081446;28;20028;-69
2023/06/12 01:52:59;;;;;;;4.55;4.25;;;;;;;15.52;100.00;97044.69;5085053;28;20027;-68
2023/06/12 01:55:25;;;;;;;5.10;4.70;;;;;;;15.51;100.00;97047.47;5083910;28;20024;-69
2023/06/12 01:57:50;;;;;;;7.00;5.05;;;;;;;15.47;100.00;97053.03;5086752;28;20428;-69
2023/06/12 02:00:17;;;;;;;5.57;4.43;;;;;;;15.51;100.00;97058.06;5082160;28;20523;-69
2023/06/12 02:02:44;;;;;;;4.50;4.10;;;;;;;15.59;100.00;96989.22;5078870;28;20040;-69
2023/06/12 02:05:12;;;;;;;4.50;4.15;;;;;;;15.62;100.00;96999.56;5081032;28;20063;-68
2023/06/12 02:07:38;;;;;;;4.45;4.05;;;;;;;15.61;100.00;96998.69;5088307;28;20035;-69
2023/06/12 02:10:04;;;;;;;6.15;5.07;;;;;;;15.58;100.00;97009.59;5082929;28;20020;-69
2023/06/12 02:12:30;;;;;;;6.43;5.53;;;;;;;15.55;100.00;97022.31;5083222;28;20466;-68
2023/06/12 02:14:59;;;;;;;6.25;5.68;;;;;;;15.60;100.00;97028.88;5080675;28;20032;-69
2023/06/12 02:17:24;;;;;;;6.68;6.07;;;;;;;15.61;100.00;97027.91;5077595;28;20021;-69
2023/06/12 02:19:49;;;;;;;7.65;7.00;;;;;;;15.69;100.00;97036.97;5080295;28;20036;-69
2023/06/12 02:22:15;;;;;;;7.05;6.45;;;;;;;15.69;100.00;97037.81;5086524;28;20027;-69
2023/06/12 02:24:41;;;;;;;6.85;6.35;;;;;;;15.73;100.00;97047.16;5078676;28;20039;-69
2023/06/12 02:27:06;;;;;;;7.78;6.57;;;;;;;15.71;100.00;97051.78;5086196;28;20020;-69
2023/06/12 02:29:32;;;;;;;6.90;5.82;;;;;;;15.65;100.00;97054.16;5076974;28;20040;-70
2023/06/12 02:31:57;;;;;;;6.15;5.75;;;;;;;15.67;100.00;97055.69;5078928;28;20088;-69
2023/06/12 02:34:23;;;;;;;6.72;6.13;;;;;;;15.67;100.00;97049.53;5085963;28;20036;-69
2023/06/12 02:36:48;;;;;;;7.90;6.15;;;;;;;15.66;100.00;97050.53;5090909;28;20100;-69
2023/06/12 02:39:14;;;;;;;7.13;6.63;;;;;;;15.70;100.00;97059.91;5093968;28;20563;-70
2023/06/12 02:41:41;;;;;;;7.82;7.10;;;;;;;15.67;100.00;97061.00;5077971;28;20035;-69
2023/06/12 02:44:06;;;;;;;7.88;7.28;;;;;;;15.64;100.00;97048.03;5075820;28;20027;-69
2023/06/12 02:46:32;;;;;;;7.43;6.93;;;;;;;15.60;100.00;97051.94;5093747;28;20484;-69
2023/06/12 02:48:57;;;;;;;11.65;7.90;;;;;;;15.56;100.00;97056.69;5095583;28;20396;-69
2023/06/12 02:51:23;;;;;;;7.43;6.72;;;;;;;15.65;100.00;97070.94;5081272;28;20023;-69
2023/06/12 02:53:48;;;;;;;6.70;6.20;;;;;;;15.65;100.00;97073.59;5085961;28;20035;-69
2023/06/12 02:56:14;;;;;;;6.78;6.15;;;;;;;15.61;100.00;97077.50;5079329;28;20024;-69
2023/06/12 02:58:40;;;;;;;7.07;6.40;;;;;;;15.58;100.00;97077.75;5086085;28;20126;-69
2023/06/12 03:01:06;;;;;;;6.72;6.22;;;;;;;15.55;100.00;97078.03;5085048;28;20059;-69
2023/06/12 03:03:32;;;;;;;6.90;6.15;;;;;;;15.56;100.00;97083.22;5088259;28;20020;-69
2023/06/12 03:05:57;;;;;;;7.53;6.93;;;;;;;15.54;100.00;97085.19;5076915;28;20433;-69
2023/06/12 03:08:23;;;;;;;7.97;7.22;;;;;;;15.56;100.00;97095.66;5076996;28;20059;-69
2023/06/12 03:10:48;;;;;;;10.98;9.98;;;;;;;15.60;100.00;97091.75;5084551;28;20119;-69
2023/06/12 03:13:14;;;;;;;6.13;5.43;;;;;;;15.57;100.00;97102.63;5083898;28;20025;-69
2023/06/12 03:15:40;;;;;;;6.47;5.78;;;;;;;15.57;100.00;97107.94;5085355;28;20024;-69
2023/06/12 03:18:05;;;;;;;8.25;7.47;;;;;;;15.61;100.00;97104.88;5078518;28;20029;-70
2023/06/12 03:20:33;;;;;;;12.05;9.32;;;;;;;15.57;100.00;97107.94;5086059;28;20089;-69
2023/06/12 03:22:59;;;;;;;14.63;11.43;;;;;;;15.56;100.00;97106.25;5083586;28;20031;-69
2023/06/12 03:25:24;;;;;;;19.20;12.73;;;;;;;15.61;100.00;97119.97;5079541;28;20024;-70
2023/06/12 03:27:50;;;;;;;19.27;14.38;;;;;;;15.58;100.00;97125.53;5083960;28;20020;-69
2023/06/12 03:30:15;;;;;;;24.80;17.95;;;;;;;15.56;100.00;97128.34;5079410;28;20027;-69
2023/06/12 03:32:41;;;;;;;19.88;16.75;;;;;;;15.56;100.00;97130.16;5083402;28;20032;-70
2023/06/12 03:35:07;;;;;;;20.38;16.15;;;;;;;15.54;100.00;97137.41;5078706;28;20422;-69
2023/06/12 03:37:32;;;;;;;25.15;18.08;;;;;;;15.45;100.00;97131.09;5081466;28;20085;-69
2023/06/12 03:39:57;;;;;;;17.55;14.85;;;;;;;15.44;100.00;97142.69;5091727;28;20454;-70
2023/06/12 03:42:23;;;;;;;16.50;13.15;;;;;;;15.38;100.00;97143.25;5081423;28;20028;-69
2023/06/12 03:44:49;;;;;;;15.75;14.00;;;;;;;15.35;100.00;97152.31;5073744;28;20025;-70
2023/06/12 03:47:14;;;;;;;15.85;13.65;;;;;;;15.36;100.00;97159.31;5091986;28;20069;-70
2023/06/12 03:49:40;;;;;;;14.73;9.55;;;;;;;15.31;100.00;97156.22;5074825;28;20077;-70
2023/06/12 03:52:06;;;;;;;13.02;9.52;;;;;;;15.27;100.00;97160.97;5086762;28;20162;-70
2023/06/12 03:54:32;;;;;;;11.93;9.82;;;;;;;15.25;100.00;97162.09;5078750;28;20516;-70
2023/06/12 03:56:58;;;;;;;11.25;9.93;;;;;;;15.17;100.00;97163.59;5086621;28;20020;-70
2023/06/12 03:59:23;;;;;;;10.65;8.27;;;;;;;15.22;100.00;97170.31;5080877;28;20426;-70
2023/06/12 04:01:49;;;;;;;10.93;8.90;;;;;;;15.25;100.00;97167.38;5091319;28;20028;-70
2023/06/12 04:04:15;;;;;;;10.57;9.55;;;;;;;15.24;100.00;97176.31;5082394;28;20091;-70
2023/06/12 04:06:42;;;;;;;8.63;7.75;;;;;;;15.24;100.00;97176.31;5096869;28;20044;-70
2023/06/12 04:09:08;;;;;;;9.80;8.90;;;;;;;15.27;100.00;97179.56;5078796;28;20028;-70
2023/06/12 04:11:40;;;;;;;10.18;9.27;;;;;;;15.29;100.00;97184.72;5089204;28;20102;-70
2023/06/12 04:14:06;;;;;;;9.98;9.07;;;;;;;15.32;100.00;97184.44;5094115;28;20024;-70
2023/06/12 04:16:32;;;;;;;11.43;10.18;;;;;;;15.28;100.00;97186.53;5084132;28;20025;-70
2023/06/12 04:19:03;;;;;;;10.85;9.95;;;;;;;15.25;100.00;97183.31;5077292;28;20141;-70
2023/06/12 04:21:30;;;;;;;12.40;9.90;;;;;;;15.23;100.00;97190.56;5074821;28;20029;-70
2023/06/12 04:23:55;;;;;;;10.88;9.90;;;;;;;15.29;100.00;97182.06;5076364;28;20031;-70
2023/06/12 04:26:24;;;;;;;13.25;9.88;;;;;;;15.32;100.00;97181.78;5076553;28;20108;-69
2023/06/12 04:28:49;;;;;;;10.32;9.32;;;;;;;15.33;100.00;97186.97;5073283;28;20489;-69
2023/06/12 04:31:15;;;;;;;9.75;8.93;;;;;;;15.36;100.00;97183.19;5088786;28;20439;-72
2023/06/12 04:33:41;;;;;;;10.05;8.68;;;;;;;15.38;100.00;97183.91;5076278;28;20099;-73
2023/06/12 04:36:07;;;;;;;9.88;8.88;;;;;;;15.34;100.00;97179.81;5082127;28;20017;-73
2023/06/12 04:38:36;;;;;;;9.00;8.18;;;;;;;15.31;100.00;97180.09;5080806;28;20463;-73
2023/06/12 04:41:02;;;;;;;8.43;7.55;;;;;;;15.36;100.00;97180.53;5079986;28;20035;-72
2023/06/12 04:43:28;;;;;;;9.15;8.35;;;;;;;15.39;100.00;97179.44;5081222;28;20021;-72
2023/06/12 04:45:53;;;;;;;8.77;7.63;;;;;;;15.42;100.00;97177.34;5085410;28;20385;-71
2023/06/12 04:48:20;;;;;;;7.45;6.95;;;;;;;15.44;100.00;97179.84;5080334;28;20016;-73
2023/06/12 04:50:49;;;;;;;6.93;6.32;;;;;;;15.49;100.00;97182.09;5075281;28;20086;-71
2023/06/12 04:53:17;;;;;;;7.13;6.53;;;;;;;15.53;100.00;97183.50;5082180;28;20097;-71
2023/06/12 04:55:50;;;;;;;6.10;5.60;;;;;;;15.58;100.00;97184.78;5078310;28;20500;-72
2023/06/12 04:58:18;;;;;;;7.90;5.78;;;;;;;15.63;100.00;97186.19;5081301;28;20413;-71
2023/06/12 05:00:47;;;;;;;5.63;5.10;;;;;;;15.65;100.00;97189.53;5077129;28;20032;-72
2023/06/12 05:03:17;;;;;;;7.80;5.80;;;;;;;15.67;100.00;97193.75;5075592;28;20020;-72
2023/06/12 05:05:46;;;;;;;7.25;6.60;;;;;;;15.68;100.00;97200.72;5078401;28;20354;-72
2023/06/12 05:08:13;;;;;;;6.80;6.18;;;;;;;15.70;100.00;97197.94;5099441;28;20027;-72
2023/06/12 05:10:39;;;;;;;5.93;5.43;;;;;;;15.73;100.00;97198.50;5073017;28;20029;-72
2023/06/12 05:13:05;;;;;;;6.05;5.35;;;;;;;15.78;100.00;97194.59;5078065;28;20029;-72
2023/06/12 05:15:30;;;;;;;5.43;5.03;;;;;;;15.80;100.00;97197.94;5082294;28;20039;-72
2023/06/12 05:17:55;;;;;;;5.22;4.80;;;;;;;15.87;100.00;97199.09;5092661;28;20028;-72
2023/06/12 05:20:21;;;;;;;5.30;4.80;;;;;;;15.90;100.00;97206.81;5081818;28;20021;-72
2023/06/12 05:22:46;;;;;;;5.43;4.55;;;;;;;15.93;100.00;97200.38;5085229;28;20111;-72
2023/06/12 05:25:12;;;;;;;5.75;5.18;;;;;;;15.88;100.00;97201.63;5085134;28;20048;-72
2023/06/12 05:27:38;;;;;;;11.13;6.20;;;;;;;15.90;100.00;97206.81;5089465;28;20491;-70
2023/06/12 05:30:06;;;;;;;7.70;6.95;;;;;;;15.92;100.00;97207.50;5090578;28;20093;-72
2023/06/12 05:32:31;;;;;;;7.82;6.65;;;;;;;15.93;100.00;97209.19;5077581;28;20017;-72
2023/06/12 05:34:57;;;;;;;10.90;7.15;;;;;;;16.03;100.00;97209.19;5078667;28;20020;-72
2023/06/12 05:37:22;;;;;;;7.10;6.55;;;;;;;16.06;100.00;97219.53;5096425;28;20023;-72
2023/06/12 05:39:48;;;;;;;7.55;6.95;;;;;;;16.08;100.00;97212.25;5089996;28;20032;-71
2023/06/12 05:42:13;;;;;;;7.45;6.70;;;;;;;16.06;100.00;97208.09;5086374;28;20036;-73
2023/06/12 05:44:38;;;;;;;6.60;5.35;;;;;;;16.11;100.00;97205.84;5083096;28;20074;-72
2023/06/12 05:47:04;;;;;;;5.18;4.78;;;;;;;16.17;100.00;97205.28;5089710;28;20447;-70
2023/06/12 05:49:30;;;;;;;5.75;5.25;;;;;;;16.18;100.00;97210.47;5078573;28;20024;-71
2023/06/12 05:51:55;;;;;;;6.65;6.05;;;;;;;16.14;100.00;97216.19;5077292;28;20051;-70
2023/06/12 05:54:20;;;;;;;7.47;6.03;;;;;;;16.17;100.00;97214.09;5089694;28;20627;-70
2023/06/12 05:56:46;;;;;;;9.35;5.97;;;;;;;16.26;100.00;97222.19;5085437;28;20016;-71
2023/06/12 05:59:11;;;;;;;7.90;6.55;;;;;;;16.30;100.00;97229.75;5080301;28;20099;-71
2023/06/12 06:01:37;;;;;;;6.13;5.53;;;;;;;16.32;100.00;97230.44;5083627;28;20032;-71
2023/06/12 06:04:02;;;;;;;6.65;4.97;;;;;;;16.46;100.00;97233.63;5091807;28;20465;-72
2023/06/12 06:06:30;;;;;;;6.55;5.47;;;;;;;16.46;100.00;97236.28;5084165;28;20048;-74
2023/06/12 06:08:56;;;;;;;4.53;4.22;;;;;;;16.50;100.00;97231.53;5081177;28;20087;-70
2023/06/12 06:11:21;;;;;;;4.57;4.18;;;;;;;16.59;100.00;97228.06;5089629;28;20811;-69
2023/06/12 06:13:47;;;;;;;4.63;4.22;;;;;;;16.59;100.00;97226.22;5083640;28;21123;-71
2023/06/12 06:16:13;;;;;;;4.68;3.97;;;;;;;16.60;100.00;97217.25;5092930;28;20102;-71
2023/06/12 06:18:39;;;;;;;4.90;4.55;;;;;;;16.60;100.00;97217.25;5082723;28;20027;-69
2023/06/12 06:21:05;;;;;;;6.63;4.20;;;;;;;16.58;100.00;97216.56;5087333;28;20102;-70
2023/06/12 06:23:32;;;;;;;5.95;4.35;;;;;;;16.54;100.00;97224.97;5082599;28;20100;-70
2023/06/12 06:25:57;;;;;;;7.47;4.50;;;;;;;16.52;100.00;97222.47;5097184;28;20024;-69
2023/06/12 06:28:23;;;;;;;5.20;4.25;;;;;;;16.55;100.00;97224.84;5087610;28;20024;-71
2023/06/12 06:30:48;;;;;;;4.13;3.88;;;;;;;16.58;100.00;97224.53;5088646;28;20052;-70
2023/06/12 06:33:14;;;;;;;7.47;4.25;;;;;;;16.67;100.00;97235.28;5077863;28;20099;-69
2023/06/12 06:35:39;;;;;;;6.00;5.40;;;;;;;16.76;100.00;97240.59;5092001;28;20044;-69
2023/06/12 06:38:05;;;;;;;6.10;5.60;;;;;;;16.72;100.00;97243.72;5088658;28;20027;-70
2023/06/12 06:40:30;;;;;;;8.27;7.47;;;;;;;16.74;100.00;97247.06;5092561;28;20112;-69
2023/06/12 06:42:55;;;;;;;9.23;8.52;;;;;;;16.74;100.00;97245.22;5089519;28;20016;-70
2023/06/12 06:45:21;;;;;;;8.73;7.93;;;;;;;16.79;100.00;97257.25;5085785;28;20066;-69
2023/06/12 06:47:46;;;;;;;12.68;8.30;;;;;;;16.78;100.00;97253.75;5075913;28;20099;-69
2023/06/12 06:50:12;;;;;;;8.50;7.68;;;;;;;16.72;100.00;97255.16;5083289;28;20021;-69
2023/06/12 06:52:38;;;;;;;8.80;6.45;;;;;;;16.76;100.00;97255.72;5093108;28;20024;-69
2023/06/12 06:55:04;;;;;;;6.72;6.13;;;;;;;16.82;100.00;97263.13;5082342;28;20016;-69
2023/06/12 06:57:30;;;;;;;6.38;5.88;;;;;;;16.92;100.00;97264.94;5076262;28;20028;-69
2023/06/12 06:59:56;;;;;;;7.82;4.78;;;;;;;16.97;100.00;97263.50;5089887;28;20031;-69
2023/06/12 07:02:22;;;;;;;4.60;4.20;;;;;;;17.00;100.00;97257.09;5080480;28;20145;-70
2023/06/12 07:04:48;;;;;;;5.95;4.10;;;;;;;17.06;100.00;97251.19;5075248;28;20013;-69
2023/06/12 07:07:14;;;;;;;4.93;4.15;;;;;;;17.14;100.00;97234.50;5084207;28;20050;-68
2023/06/12 07:09:39;;;;;;;5.80;4.32;;;;;;;17.24;100.00;97234.47;5079121;28;20058;-70
2023/06/12 07:12:05;;;;;;;5.53;3.97;;;;;;;17.18;100.00;97235.91;5075917;28;20101;-70
2023/06/12 07:14:31;;;;;;;3.90;3.60;;;;;;;17.07;100.00;97218.28;5077341;28;20062;-69
2023/06/12 07:16:56;;;;;;;5.13;3.30;;;;;;;17.14;100.00;97230.03;5081601;28;20559;-69
2023/06/12 07:19:21;;;;;;;4.95;4.03;;;;;;;17.21;100.00;97213.50;5084275;28;20031;-69
2023/06/12 07:21:48;;;;;;;4.00;3.60;;;;;;;17.31;100.00;97208.94;5087878;28;20044;-69
2023/06/12 07:24:17;;;;;;;4.30;3.47;;;;;;;17.37;100.00;97187.09;5087011;28;20024;-69
2023/06/12 07:26:43;;;;;;;7.82;3.85;;;;;;;17.64;100.00;97139.25;5089734;28;20024;-70
2023/06/12 07:29:08;;;;;;;4.88;3.80;;;;;;;17.73;100.00;97120.53;5077313;28;20025;-69
2023/06/12 07:31:33;;;;;;;3.97;3.55;;;;;;;17.79;100.00;97096.94;5076162;28;20387;-69
2023/06/12 07:33:59;;;;;;;4.78;3.85;;;;;;;17.88;100.00;97072.06;5084356;28;20496;-70
2023/06/12 07:36:24;;;;;;;3.88;3.50;;;;;;;17.90;100.00;97059.44;5081233;28;20020;-70
2023/06/12 07:38:50;;;;;;;4.57;4.18;;;;;;;18.03;100.00;97033.25;5089262;28;20597;-71
2023/06/12 07:41:16;;;;;;;4.05;3.15;;;;;;;18.15;100.00;96975.22;5085139;28;20024;-70
2023/06/12 07:43:41;;;;;;;5.10;3.60;;;;;;;18.33;100.00;96815.19;5080091;28;20477;-70
2023/06/12 07:46:07;;;;;;;3.72;3.40;;;;;;;18.56;100.00;96792.38;5086130;28;20416;-70
2023/06/12 07:48:32;;;;;;;3.75;3.20;;;;;;;18.72;100.00;96757.72;5073870;28;20405;-71
2023/06/12 07:50:58;;;;;;;4.15;3.13;;;;;;;18.93;100.00;96734.19;5080153;28;20012;-71
2023/06/12 07:53:23;;;;;;;3.00;2.80;;;;;;;19.08;100.00;96683.66;5078715;28;20103;-70
2023/06/12 07:55:52;;;;;;;4.03;3.20;;;;;;;19.31;100.00;96651.69;5080939;28;20028;-70
2023/06/12 07:58:17;;;;;;;5.00;2.97;;;;;;;19.45;100.00;96623.44;5081759;28;20023;-70
2023/06/12 08:00:43;;;;;;;3.75;3.42;;;;;;;19.64;100.00;96619.50;5081296;28;20021;-70
2023/06/12 08:03:08;;;;;;;6.15;3.20;;;;;;;20.08;100.00;96601.19;5082125;28;20017;-70
2023/06/12 08:05:34;;;;;;;4.63;3.08;;;;;;;20.66;100.00;96576.53;5080175;28;20040;-71
2023/06/12 08:08:00;;;;;;;3.22;2.92;;;;;;;21.13;100.00;96535.22;5091967;28;20034;-71
2023/06/12 08:10:26;;;;;;;3.03;2.80;;;;;;;21.47;100.00;96511.47;5085910;28;20016;-70
2023/06/12 08:12:52;;;;;;;2.97;2.70;;;;;;;21.49;100.00;96504.06;5076880;28;20020;-70
2023/06/12 08:15:17;;;;;;;3.13;2.85;;;;;;;21.46;100.00;96504.47;5079550;28;20025;-70
2023/06/12 08:17:43;;;;;;;2.80;2.60;;;;;;;21.50;100.00;96499.53;5079945;28;20099;-70
2023/06/12 08:20:10;;;;;;;3.80;3.05;;;;;;;21.49;100.00;96492.50;5089768;28;20149;-70
2023/06/12 08:22:36;;;;;;;3.13;2.55;;;;;;;21.26;100.00;96509.59;5080092;28;20055;-69
2023/06/12 08:25:09;;;;;;;3.47;3.17;;;;;;;21.49;100.00;96506.75;5074005;28;20024;-69
2023/06/12 08:27:35;;;;;;;5.03;4.00;;;;;;;21.85;100.00;96507.72;5076775;28;20524;-69
2023/06/12 08:30:01;;;;;;;3.78;3.03;;;;;;;;;;5072633;28;20016;-69
2023/06/12 08:32:27;;;;;;;3.50;3.20;;;;;;;22.66;100.00;96500.22;5077614;28;20032;-69
2023/06/12 08:34:53;;;;;;;3.35;3.10;;;;;;;23.07;100.00;96459.06;5055983;28;20028;-69
2023/06/12 08:37:20;;;;;;;4.18;2.90;;;;;;;23.46;100.00;96427.97;5086594;28;20026;-69
2023/06/12 08:39:46;;;;;;;3.00;2.60;;;;;;;24.05;100.00;96413.09;5084532;28;20024;-69
2023/06/12 08:42:15;;;;;;;3.00;2.80;;;;;;;24.50;100.00;96388.09;5074932;28;20031;-68
2023/06/12 08:44:44;;;;;;;3.60;2.55;;;;;;;24.64;100.00;96324.25;5076250;28;20028;-69
2023/06/12 08:47:11;;;;;;;3.40;2.90;;;;;;;24.53;100.00;96325.78;5080271;28;20103;-70
2023/06/12 08:49:37;;;;;;;2.80;2.60;;;;;;;24.77;100.00;96313.47;5074194;28;20059;-69
2023/06/12 08:52:03;;;;;;;2.85;2.40;;;;;;;25.18;100.00;96279.78;5081991;28;20013;-70
2023/06/12 08:54:32;;;;;;;3.30;3.00;;;;;;;24.96;100.00;96262.38;5080849;28;20368;-70
2023/06/12 08:56:59;;;;;;;3.05;2.47;;;;;;;25.45;100.00;96255.28;5075902;28;20411;-70
2023/06/12 08:59:25;;;;;;;4.18;2.75;;;;;;;25.62;100.00;96218.84;5083215;28;20173;-70
2023/06/12 09:01:53;;;;;;;2.47;2.35;;;;;;;25.59;100.00;96223.66;5089473;28;20051;-70
2023/06/12 09:04:31;;;;;;;4.22;2.72;;;;;;;26.07;100.00;96231.19;5081490;28;20047;-70
2023/06/12 09:07:01;;;;;;;3.58;2.80;;;;;;;26.30;100.00;96208.88;5080987;28;20055;-70
2023/06/12 09:09:37;;;;;;;2.60;2.40;;;;;;;26.53;100.00;96207.34;5090567;28;20021;-70
2023/06/12 09:12:04;;;;;;;2.80;2.30;;;;;;;26.47;100.00;96200.97;5084756;28;20017;-69
2023/06/12 09:14:34;;;;;;;2.88;2.65;;;;;;;26.48;100.00;96202.63;5089215;28;20043;-70
2023/06/12 09:17:00;;;;;;;7.70;2.63;;;;;;;26.45;100.00;96212.00;5086349;28;20025;-70
2023/06/12 09:19:34;;;;;;;3.58;2.70;;;;;;;26.77;100.00;96212.78;5072839;28;20028;-70
2023/06/12 09:22:00;;;;;;;2.50;2.30;;;;;;;26.37;100.00;96198.00;5083489;28;20032;-70
2023/06/12 09:24:25;;;;;;;2.45;2.25;;;;;;;25.86;100.00;96201.78;5076273;28;20032;-70
2023/06/12 09:26:51;;;;;;;2.40;2.30;;;;;;;25.73;100.00;96229.72;5083617;28;20079;-70
2023/06/12 09:29:16;;;;;;;2.25;2.15;;;;;;;25.78;100.00;96263.28;5074198;28;20534;-70
2023/06/12 09:31:42;;;;;;;2.78;2.50;;;;;;;26.17;100.00;96239.59;5085724;28;20070;-70
2023/06/12 09:34:07;;;;;;;2.20;2.10;;;;;;;26.24;100.00;96175.56;5076188;28;20553;-70
2023/06/12 09:36:34;;;;;;;2.95;2.70;;;;;;;26.96;100.00;96163.00;5083399;28;20024;-71
2023/06/12 09:39:00;;;;;;;2.78;2.50;;;;;;;26.70;100.00;96200.19;5089109;28;20927;-70
2023/06/12 09:41:25;;;;;;;2.78;2.45;;;;;;;26.68;100.00;96152.91;5083013;28;20024;-71
2023/06/12 09:44:02;;;;;;;2.50;2.33;;;;;;;26.52;100.00;96095.00;5081771;28;20134;-71
2023/06/12 09:46:27;;;;;;;2.70;2.50;;;;;;;26.20;100.00;96158.22;5091981;28;20029;-70
2023/06/12 09:48:58;;;;;;;2.55;2.35;;;;;;;26.12;100.00;96207.03;5082726;28;21363;-72
2023/06/12 09:51:23;;;;;;;3.03;2.42;;;;;;;26.18;100.00;96176.47;5076179;28;20021;-70
2023/06/12 09:53:51;;;;;;;3.20;2.38;;;;;;;26.29;100.00;96182.97;5082871;28;20092;-71
2023/06/12 09:56:17;;;;;;;9.02;2.80;;;;;;;26.51;100.00;96199.47;5082364;28;20013;-71
2023/06/12 09:58:47;;;;;;;2.70;2.30;;;;;;;26.43;100.00;96200.59;5089048;28;20489;-69
2023/06/12 10:01:16;;;;;;;2.60;2.40;;;;;;;26.38;100.00;96164.56;5074618;28;20467;-70
2023/06/12 10:03:44;;;;;;;3.60;2.63;;;;;;;26.46;100.00;96140.75;5078573;28;20413;-70
2023/06/12 10:06:13;;;;;;;2.72;2.50;;;;;;;26.60;100.00;96137.84;5087137;28;20059;-71
2023/06/12 10:08:39;;;;;;;2.58;2.10;;;;;;;26.92;100.00;96117.81;5077710;28;20495;-70
2023/06/12 10:11:06;;;;;;;2.30;2.20;;;;;;;27.28;100.00;96099.66;5078975;28;20099;-70
2023/06/12 10:13:35;;;;;;;4.03;2.20;;;;;;;27.26;100.00;96097.22;5084558;28;20050;-68
2023/06/12 10:16:01;;;;;;;2.45;2.13;;;;;;;27.10;100.00;96087.97;5078781;28;20069;-70
2023/06/12 10:18:28;;;;;;;2.30;2.10;;;;;;;27.15;100.00;96082.66;5082069;28;20107;-70
2023/06/12 10:20:54;;;;;;;3.90;2.20;;;;;;;27.10;100.00;96114.16;5083383;28;20374;-70
2023/06/12 10:23:21;;;;;;;2.28;1.98;;;;;;;27.27;100.00;96098.03;5081527;28;20048;-70
2023/06/12 10:25:47;;;;;;;2.70;2.00;;;;;;;27.60;100.00;96115.47;5082745;28;20024;-69
2023/06/12 10:28:13;;;;;;;2.38;2.22;;;;;;;27.25;100.00;96060.44;5082169;28;20379;-68
2023/06/12 10:31:10;;;;;;;4.03;2.30;;;;;;;26.39;100.00;96121.16;5082512;28;20012;-69
2023/06/12 10:33:36;;;;;;;2.05;1.95;;;;;;;26.43;100.00;96151.22;5079316;28;20036;-70
2023/06/12 10:36:10;;;;;;;3.53;1.95;;;;;;;25.99;100.00;96156.81;5086497;28;20020;-70
2023/06/12 10:38:48;;;;;;;3.25;2.40;;;;;;;25.83;100.00;96140.19;5089690;28;20028;-71
2023/06/12 10:41:29;;;;;;;1.92;1.83;;;;;;;26.17;100.00;96172.97;5078815;28;20020;-69
2023/06/12 10:43:54;;;;;;;2.17;2.03;;;;;;;26.25;100.00;96149.41;5085618;28;20035;-69
2023/06/12 10:46:21;;;;;;;2.17;2.05;;;;;;;25.88;100.00;96118.78;5078794;28;20095;-70
2023/06/12 10:48:47;;;;;;;3.53;2.28;;;;;;;26.07;100.00;96152.97;5081994;28;20028;-70
2023/06/12 10:51:12;;;;;;;3.00;2.10;;;;;;;26.60;100.00;96149.47;5082131;28;20023;-70
2023/06/12 10:53:46;;;;;;;3.13;2.30;;;;;;;27.33;100.00;96107.06;5079224;28;20032;-70
2023/06/12 10:56:12;;;;;;;2.35;2.20;;;;;;;27.98;100.00;96083.44;5091565;28;20027;-70
2023/06/12 10:58:40;;;;;;;4.55;1.92;;;;;;;27.66;100.00;96030.69;5080570;28;20056;-71
2023/06/12 11:01:19;;;;;;;2.22;2.10;;;;;;;26.88;100.00;96055.34;5077479;28;20021;-70
2023/06/12 11:03:45;;;;;;;2.58;2.20;;;;;;;26.09;100.00;96107.69;5080064;28;20024;-70
2023/06/12 11:06:15;;;;;;;2.28;2.00;;;;;;;26.01;100.00;96166.31;5089353;28;20053;-69
2023/06/12 11:08:41;;;;;;;7.18;2.08;;;;;;;25.86;100.00;96123.59;5081072;28;20050;-70
2023/06/12 11:11:10;;;;;;;3.20;2.00;;;;;;;25.20;100.00;96131.44;5081460;28;20049;-70
2023/06/12 11:13:40;;;;;;;2.40;2.20;;;;;;;24.92;100.00;96156.97;5090460;28;20043;-70
2023/06/12 11:16:06;;;;;;;2.25;2.10;;;;;;;24.80;100.00;96134.53;5081597;28;20035;-68
2023/06/12 11:18:31;;;;;;;2.58;2.38;;;;;;;24.61;100.00;96147.91;5087355;28;20022;-68
2023/06/12 11:20:57;;;;;;;2.42;2.25;;;;;;;24.65;100.00;96194.88;5080471;28;20012;-68
2023/06/12 11:23:27;;;;;;;2.50;2.30;;;;;;;24.97;100.00;96191.31;5083864;28;20093;-68